sensor_id;sensor_type;location;lat;lon;timestamp;temperature;humidity
35682;DHT22;21805;51.022;4.782;2022-08-06T00:44:34;15.20;99.90
35682;DHT22;21805;51.022;4.782;2022-08-06T01:10:58;14.80;99.90
35682;DHT22;21805;51.022;4.782;2022-08-06T02:21:34;13.90;99.90
35682;DHT22;21805;51.022;4.782;2022-08-06T02:24:13;13.90;99.90
35682;DHT22;21805;51.022;4.782;2022-08-06T02:26:43;13.90;99.90
35682;DHT22;21805;51.022;4.782;2022-08-06T02:29:18;13.90;99.90
35682;DHT22;21805;51.022;4.782;2022-08-06T02:31:55;14.00;99.90
35682;DHT22;21805;51.022;4.782;2022-08-06T02:34:23;13.90;99.90
35682;DHT22;21805;51.022;4.782;2022-08-06T02:36:55;13.90;99.90
35682;DHT22;21805;51.022;4.782;2022-08-06T02:39:35;14.00;99.90
35682;DHT22;21805;51.022;4.782;2022-08-06T02:42:09;13.80;99.90
35682;DHT22;21805;51.022;4.782;2022-08-06T02:47:09;13.70;99.90
35682;DHT22;21805;51.022;4.782;2022-08-06T02:49:38;13.70;99.90
35682;DHT22;21805;51.022;4.782;2022-08-06T02:52:25;13.70;99.90
35682;DHT22;21805;51.022;4.782;2022-08-06T02:54:58;13.70;99.90
35682;DHT22;21805;51.022;4.782;2022-08-06T02:57:33;13.70;99.90
35682;DHT22;21805;51.022;4.782;2022-08-06T03:00:10;13.70;99.90
35682;DHT22;21805;51.022;4.782;2022-08-06T03:02:39;13.70;99.90
35682;DHT22;21805;51.022;4.782;2022-08-06T03:05:07;13.70;99.90
35682;DHT22;21805;51.022;4.782;2022-08-06T03:07:35;13.80;99.90
35682;DHT22;21805;51.022;4.782;2022-08-06T03:10:04;13.70;99.90
35682;DHT22;21805;51.022;4.782;2022-08-06T03:12:31;13.70;99.90
35682;DHT22;21805;51.022;4.782;2022-08-06T03:15:00;13.70;99.90
35682;DHT22;21805;51.022;4.782;2022-08-06T03:17:28;13.70;99.90
35682;DHT22;21805;51.022;4.782;2022-08-06T03:19:56;13.70;99.90
35682;DHT22;21805;51.022;4.782;2022-08-06T03:22:24;13.70;99.90
35682;DHT22;21805;51.022;4.782;2022-08-06T03:24:52;13.60;99.90
35682;DHT22;21805;51.022;4.782;2022-08-06T03:27:19;13.70;99.90
35682;DHT22;21805;51.022;4.782;2022-08-06T03:29:50;13.60;99.90
35682;DHT22;21805;51.022;4.782;2022-08-06T03:32:20;13.60;99.90
35682;DHT22;21805;51.022;4.782;2022-08-06T03:34:48;13.60;99.90
35682;DHT22;21805;51.022;4.782;2022-08-06T03:37:17;13.40;99.90
35682;DHT22;21805;51.022;4.782;2022-08-06T03:39:44;13.50;99.90
35682;DHT22;21805;51.022;4.782;2022-08-06T03:42:11;13.50;99.90
35682;DHT22;21805;51.022;4.782;2022-08-06T03:44:37;13.50;99.90
35682;DHT22;21805;51.022;4.782;2022-08-06T03:47:13;13.40;99.90
35682;DHT22;21805;51.022;4.782;2022-08-06T03:49:48;13.30;99.90
35682;DHT22;21805;51.022;4.782;2022-08-06T03:52:18;13.40;99.90
35682;DHT22;21805;51.022;4.782;2022-08-06T03:57:19;13.30;99.90
35682;DHT22;21805;51.022;4.782;2022-08-06T03:59:49;13.40;99.90
35682;DHT22;21805;51.022;4.782;2022-08-06T04:02:16;13.30;99.90
35682;DHT22;21805;51.022;4.782;2022-08-06T04:07:16;13.20;99.90
35682;DHT22;21805;51.022;4.782;2022-08-06T04:09:42;13.10;99.90
35682;DHT22;21805;51.022;4.782;2022-08-06T04:12:09;13.10;99.90
35682;DHT22;21805;51.022;4.782;2022-08-06T04:14:36;13.20;99.90
35682;DHT22;21805;51.022;4.782;2022-08-06T04:17:06;13.20;99.90
35682;DHT22;21805;51.022;4.782;2022-08-06T04:19:33;13.10;99.90
35682;DHT22;21805;51.022;4.782;2022-08-06T04:21:59;13.10;99.90
35682;DHT22;21805;51.022;4.782;2022-08-06T04:24:28;13.00;99.90
35682;DHT22;21805;51.022;4.782;2022-08-06T04:26:54;13.00;99.90
35682;DHT22;21805;51.022;4.782;2022-08-06T04:29:50;13.10;99.90
35682;DHT22;21805;51.022;4.782;2022-08-06T04:32:17;13.10;99.90
35682;DHT22;21805;51.022;4.782;2022-08-06T04:34:44;13.10;99.90
35682;DHT22;21805;51.022;4.782;2022-08-06T04:37:12;13.20;99.90
35682;DHT22;21805;51.022;4.782;2022-08-06T04:39:40;13.10;99.90
35682;DHT22;21805;51.022;4.782;2022-08-06T04:42:12;13.20;99.90
35682;DHT22;21805;51.022;4.782;2022-08-06T04:44:39;13.10;99.90
35682;DHT22;21805;51.022;4.782;2022-08-06T04:47:09;13.20;99.90
35682;DHT22;21805;51.022;4.782;2022-08-06T04:49:36;13.30;99.90
35682;DHT22;21805;51.022;4.782;2022-08-06T04:52:02;13.30;99.90
35682;DHT22;21805;51.022;4.782;2022-08-06T04:54:28;13.40;99.90
35682;DHT22;21805;51.022;4.782;2022-08-06T04:56:56;13.50;99.90
35682;DHT22;21805;51.022;4.782;2022-08-06T04:59:27;13.60;99.90
35682;DHT22;21805;51.022;4.782;2022-08-06T05:01:55;13.70;99.90
35682;DHT22;21805;51.022;4.782;2022-08-06T05:04:22;13.80;99.90
35682;DHT22;21805;51.022;4.782;2022-08-06T05:06:52;13.60;99.90
35682;DHT22;21805;51.022;4.782;2022-08-06T05:09:22;13.70;99.90
35682;DHT22;21805;51.022;4.782;2022-08-06T05:11:56;13.80;99.90
35682;DHT22;21805;51.022;4.782;2022-08-06T05:14:27;14.00;99.90
35682;DHT22;21805;51.022;4.782;2022-08-06T05:16:54;14.10;99.90
35682;DHT22;21805;51.022;4.782;2022-08-06T05:19:25;14.20;99.90
35682;DHT22;21805;51.022;4.782;2022-08-06T05:22:04;14.30;99.90
35682;DHT22;21805;51.022;4.782;2022-08-06T05:24:40;14.30;99.90
35682;DHT22;21805;51.022;4.782;2022-08-06T05:27:09;14.40;99.90
35682;DHT22;21805;51.022;4.782;2022-08-06T05:29:39;14.50;99.90
35682;DHT22;21805;51.022;4.782;2022-08-06T05:32:14;14.50;99.90
35682;DHT22;21805;51.022;4.782;2022-08-06T05:37:16;14.60;99.90
35682;DHT22;21805;51.022;4.782;2022-08-06T05:39:42;14.50;99.90
35682;DHT22;21805;51.022;4.782;2022-08-06T05:44:42;14.60;99.90
35682;DHT22;21805;51.022;4.782;2022-08-06T05:47:11;14.50;99.90
35682;DHT22;21805;51.022;4.782;2022-08-06T05:49:43;14.80;99.90
35682;DHT22;21805;51.022;4.782;2022-08-06T05:54:49;14.90;99.90
35682;DHT22;21805;51.022;4.782;2022-08-06T05:59:59;15.10;99.90
35682;DHT22;21805;51.022;4.782;2022-08-06T06:02:39;15.30;99.90
35682;DHT22;21805;51.022;4.782;2022-08-06T06:05:08;15.40;99.90
35682;DHT22;21805;51.022;4.782;2022-08-06T06:07:38;15.60;99.90
35682;DHT22;21805;51.022;4.782;2022-08-06T06:10:10;15.80;99.90
35682;DHT22;21805;51.022;4.782;2022-08-06T06:12:42;16.00;99.90
35682;DHT22;21805;51.022;4.782;2022-08-06T06:15:14;16.00;99.90
35682;DHT22;21805;51.022;4.782;2022-08-06T06:23:26;16.40;99.90
35682;DHT22;21805;51.022;4.782;2022-08-06T06:25:58;16.50;99.90
35682;DHT22;21805;51.022;4.782;2022-08-06T06:31:40;16.70;99.90
35682;DHT22;21805;51.022;4.782;2022-08-06T06:34:25;16.80;99.90
35682;DHT22;21805;51.022;4.782;2022-08-06T06:42:10;17.00;99.90
35682;DHT22;21805;51.022;4.782;2022-08-06T06:44:44;17.10;99.90
35682;DHT22;21805;51.022;4.782;2022-08-06T06:47:23;17.30;99.90
35682;DHT22;21805;51.022;4.782;2022-08-06T06:49:55;17.40;99.90
35682;DHT22;21805;51.022;4.782;2022-08-06T06:52:28;17.50;99.90
35682;DHT22;21805;51.022;4.782;2022-08-06T06:54:59;17.50;99.90
35682;DHT22;21805;51.022;4.782;2022-08-06T06:57:36;17.60;99.90
35682;DHT22;21805;51.022;4.782;2022-08-06T07:00:05;17.60;99.90
35682;DHT22;21805;51.022;4.782;2022-08-06T07:05:06;17.90;99.90
35682;DHT22;21805;51.022;4.782;2022-08-06T07:07:45;18.00;99.90
35682;DHT22;21805;51.022;4.782;2022-08-06T07:10:20;18.10;99.90
35682;DHT22;21805;51.022;4.782;2022-08-06T07:12:49;18.20;99.90
35682;DHT22;21805;51.022;4.782;2022-08-06T07:15:17;18.40;99.90
35682;DHT22;21805;51.022;4.782;2022-08-06T07:43:57;19.90;99.90
35682;DHT22;21805;51.022;4.782;2022-08-06T07:49:13;20.00;99.90
35682;DHT22;21805;51.022;4.782;2022-08-06T07:51:43;20.10;99.90
35682;DHT22;21805;51.022;4.782;2022-08-06T07:56:40;20.30;99.90
35682;DHT22;21805;51.022;4.782;2022-08-06T07:59:08;20.50;99.90
35682;DHT22;21805;51.022;4.782;2022-08-06T08:04:10;20.80;99.90
35682;DHT22;21805;51.022;4.782;2022-08-06T08:06:55;21.00;99.90
35682;DHT22;21805;51.022;4.782;2022-08-06T08:09:22;21.20;99.90
35682;DHT22;21805;51.022;4.782;2022-08-06T08:14:18;21.40;99.90
35682;DHT22;21805;51.022;4.782;2022-08-06T08:19:20;21.70;99.90
35682;DHT22;21805;51.022;4.782;2022-08-06T08:21:49;21.70;99.90
35682;DHT22;21805;51.022;4.782;2022-08-06T08:32:28;21.60;99.90
35682;DHT22;21805;51.022;4.782;2022-08-06T09:01:11;21.50;99.90
35682;DHT22;21805;51.022;4.782;2022-08-06T09:21:49;23.40;98.30
35682;DHT22;21805;51.022;4.782;2022-08-06T09:24:15;23.10;97.10
35682;DHT22;21805;51.022;4.782;2022-08-06T09:29:27;22.40;97.30
35682;DHT22;21805;51.022;4.782;2022-08-06T09:31:56;22.20;97.80
35682;DHT22;21805;51.022;4.782;2022-08-06T10:10:55;23.70;93.60
35682;DHT22;21805;51.022;4.782;2022-08-06T10:19:16;23.80;92.70
35682;DHT22;21805;51.022;4.782;2022-08-06T10:21:44;23.70;93.50
35682;DHT22;21805;51.022;4.782;2022-08-06T10:24:29;23.70;95.40
35682;DHT22;21805;51.022;4.782;2022-08-06T10:55:33;25.20;92.30
35682;DHT22;21805;51.022;4.782;2022-08-06T11:00:40;25.00;91.10
